sensor_id;sensor_type;location;lat;lon;timestamp;P1;durP1;ratioP1;P2;durP2;ratioP2
19998;SDS011;10160;50.926;4.374;2022-08-14T10:40:45;4.10;;;1.20;;
19998;SDS011;10160;50.926;4.374;2022-08-14T10:43:15;4.78;;;1.30;;
19998;SDS011;10160;50.926;4.374;2022-08-14T10:45:54;5.45;;;1.30;;
19998;SDS011;10160;50.926;4.374;2022-08-14T10:48:22;2.60;;;1.25;;
19998;SDS011;10160;50.926;4.374;2022-08-14T10:50:51;4.28;;;1.40;;
19998;SDS011;10160;50.926;4.374;2022-08-14T10:53:40;4.10;;;1.65;;
19998;SDS011;10160;50.926;4.374;2022-08-14T10:56:07;2.85;;;1.50;;
19998;SDS011;10160;50.926;4.374;2022-08-14T10:58:34;3.95;;;1.30;;
19998;SDS011;10160;50.926;4.374;2022-08-14T11:01:03;2.30;;;1.33;;
19998;SDS011;10160;50.926;4.374;2022-08-14T11:03:41;4.78;;;1.20;;
19998;SDS011;10160;50.926;4.374;2022-08-14T11:06:11;2.78;;;1.50;;
19998;SDS011;10160;50.926;4.374;2022-08-14T11:08:40;3.45;;;1.48;;
19998;SDS011;10160;50.926;4.374;2022-08-14T11:11:06;4.40;;;1.40;;
19998;SDS011;10160;50.926;4.374;2022-08-14T11:13:32;7.05;;;1.88;;
19998;SDS011;10160;50.926;4.374;2022-08-14T11:15:58;2.85;;;1.30;;
19998;SDS011;10160;50.926;4.374;2022-08-14T11:18:25;3.28;;;1.38;;
19998;SDS011;10160;50.926;4.374;2022-08-14T11:20:55;5.78;;;1.40;;
19998;SDS011;10160;50.926;4.374;2022-08-14T11:23:33;2.95;;;1.35;;
19998;SDS011;10160;50.926;4.374;2022-08-14T11:26:02;6.35;;;1.23;;
19998;SDS011;10160;50.926;4.374;2022-08-14T11:28:34;4.28;;;1.63;;
19998;SDS011;10160;50.926;4.374;2022-08-14T11:31:22;4.63;;;1.63;;
19998;SDS011;10160;50.926;4.374;2022-08-14T11:33:48;2.90;;;1.50;;
19998;SDS011;10160;50.926;4.374;2022-08-14T11:36:20;6.38;;;1.35;;
19998;SDS011;10160;50.926;4.374;2022-08-14T11:38:52;4.10;;;1.40;;
19998;SDS011;10160;50.926;4.374;2022-08-14T11:41:21;3.35;;;1.40;;
19998;SDS011;10160;50.926;4.374;2022-08-14T11:43:48;3.72;;;1.27;;
19998;SDS011;10160;50.926;4.374;2022-08-14T11:46:15;5.93;;;1.23;;
19998;SDS011;10160;50.926;4.374;2022-08-14T11:48:46;6.63;;;1.38;;
19998;SDS011;10160;50.926;4.374;2022-08-14T11:51:14;2.38;;;1.30;;
19998;SDS011;10160;50.926;4.374;2022-08-14T11:53:49;6.03;;;1.30;;
19998;SDS011;10160;50.926;4.374;2022-08-14T11:56:16;2.80;;;1.00;;
19998;SDS011;10160;50.926;4.374;2022-08-14T11:58:42;2.15;;;1.10;;
19998;SDS011;10160;50.926;4.374;2022-08-14T12:01:16;11.85;;;1.40;;
19998;SDS011;10160;50.926;4.374;2022-08-14T12:03:51;3.95;;;1.40;;
19998;SDS011;10160;50.926;4.374;2022-08-14T12:06:17;5.95;;;1.20;;
19998;SDS011;10160;50.926;4.374;2022-08-14T12:08:45;7.30;;;1.23;;
19998;SDS011;10160;50.926;4.374;2022-08-14T12:11:12;3.30;;;1.33;;
19998;SDS011;10160;50.926;4.374;2022-08-14T12:13:39;2.50;;;1.10;;
19998;SDS011;10160;50.926;4.374;2022-08-14T12:16:07;2.67;;;1.30;;
19998;SDS011;10160;50.926;4.374;2022-08-14T12:18:39;3.75;;;1.17;;
19998;SDS011;10160;50.926;4.374;2022-08-14T12:23:41;7.20;;;1.30;;
19998;SDS011;10160;50.926;4.374;2022-08-14T12:26:08;2.70;;;1.35;;
19998;SDS011;10160;50.926;4.374;2022-08-14T12:31:32;4.15;;;1.35;;
19998;SDS011;10160;50.926;4.374;2022-08-14T12:33:59;4.32;;;1.35;;
19998;SDS011;10160;50.926;4.374;2022-08-14T12:36:28;2.28;;;1.20;;
19998;SDS011;10160;50.926;4.374;2022-08-14T12:38:55;6.35;;;1.30;;
19998;SDS011;10160;50.926;4.374;2022-08-14T12:41:22;5.32;;;1.30;;
19998;SDS011;10160;50.926;4.374;2022-08-14T12:44:01;6.47;;;1.20;;
19998;SDS011;10160;50.926;4.374;2022-08-14T12:46:36;3.53;;;1.27;;
19998;SDS011;10160;50.926;4.374;2022-08-14T12:49:09;4.72;;;1.23;;
19998;SDS011;10160;50.926;4.374;2022-08-14T12:51:40;2.75;;;1.23;;
19998;SDS011;10160;50.926;4.374;2022-08-14T12:56:39;2.58;;;1.33;;
19998;SDS011;10160;50.926;4.374;2022-08-14T12:59:06;5.57;;;1.20;;
19998;SDS011;10160;50.926;4.374;2022-08-14T13:01:32;4.10;;;1.40;;
19998;SDS011;10160;50.926;4.374;2022-08-14T13:04:09;2.33;;;1.02;;
19998;SDS011;10160;50.926;4.374;2022-08-14T13:06:40;3.38;;;1.00;;
19998;SDS011;10160;50.926;4.374;2022-08-14T13:09:11;3.90;;;1.17;;
19998;SDS011;10160;50.926;4.374;2022-08-14T13:11:45;4.07;;;1.00;;
19998;SDS011;10160;50.926;4.374;2022-08-14T13:14:22;6.35;;;1.00;;
19998;SDS011;10160;50.926;4.374;2022-08-14T13:20:15;2.63;;;0.95;;
19998;SDS011;10160;50.926;4.374;2022-08-14T13:22:42;3.15;;;1.20;;
19998;SDS011;10160;50.926;4.374;2022-08-14T13:25:12;4.32;;;0.90;;
19998;SDS011;10160;50.926;4.374;2022-08-14T13:27:45;5.38;;;1.13;;
19998;SDS011;10160;50.926;4.374;2022-08-14T13:30:16;4.68;;;1.13;;
19998;SDS011;10160;50.926;4.374;2022-08-14T13:32:45;4.05;;;1.30;;
19998;SDS011;10160;50.926;4.374;2022-08-14T13:35:12;3.00;;;1.20;;
19998;SDS011;10160;50.926;4.374;2022-08-14T13:37:40;8.43;;;1.30;;
19998;SDS011;10160;50.926;4.374;2022-08-14T13:40:08;5.47;;;1.40;;
19998;SDS011;10160;50.926;4.374;2022-08-14T13:42:36;2.42;;;1.20;;
19998;SDS011;10160;50.926;4.374;2022-08-14T13:45:07;3.35;;;1.20;;
19998;SDS011;10160;50.926;4.374;2022-08-14T13:47:33;3.92;;;1.30;;
19998;SDS011;10160;50.926;4.374;2022-08-14T13:50:00;5.50;;;1.20;;
19998;SDS011;10160;50.926;4.374;2022-08-14T13:52:41;3.60;;;1.20;;
19998;SDS011;10160;50.926;4.374;2022-08-14T13:55:18;4.15;;;1.40;;
19998;SDS011;10160;50.926;4.374;2022-08-14T13:57:49;5.32;;;1.10;;
19998;SDS011;10160;50.926;4.374;2022-08-14T14:00:15;2.45;;;1.10;;
19998;SDS011;10160;50.926;4.374;2022-08-14T14:02:43;3.08;;;1.33;;
19998;SDS011;10160;50.926;4.374;2022-08-14T14:05:15;3.15;;;1.30;;
19998;SDS011;10160;50.926;4.374;2022-08-14T14:07:49;3.28;;;1.35;;
19998;SDS011;10160;50.926;4.374;2022-08-14T14:10:17;5.40;;;1.30;;
19998;SDS011;10160;50.926;4.374;2022-08-14T14:12:45;2.70;;;1.30;;
19998;SDS011;10160;50.926;4.374;2022-08-14T14:15:13;2.80;;;1.25;;
19998;SDS011;10160;50.926;4.374;2022-08-14T14:17:44;9.25;;;1.75;;
19998;SDS011;10160;50.926;4.374;2022-08-14T14:20:12;4.35;;;1.58;;
19998;SDS011;10160;50.926;4.374;2022-08-14T14:22:46;3.15;;;1.27;;
19998;SDS011;10160;50.926;4.374;2022-08-14T14:25:14;5.70;;;1.50;;
19998;SDS011;10160;50.926;4.374;2022-08-14T14:27:43;4.22;;;1.55;;
19998;SDS011;10160;50.926;4.374;2022-08-14T14:30:11;3.47;;;1.33;;
19998;SDS011;10160;50.926;4.374;2022-08-14T14:32:39;8.80;;;1.20;;
19998;SDS011;10160;50.926;4.374;2022-08-14T14:35:12;2.55;;;1.38;;
19998;SDS011;10160;50.926;4.374;2022-08-14T14:37:40;2.90;;;1.30;;
19998;SDS011;10160;50.926;4.374;2022-08-14T14:40:07;5.32;;;1.38;;
19998;SDS011;10160;50.926;4.374;2022-08-14T14:42:37;3.60;;;1.67;;
19998;SDS011;10160;50.926;4.374;2022-08-14T14:45:13;5.28;;;1.55;;
19998;SDS011;10160;50.926;4.374;2022-08-14T14:47:48;3.28;;;1.23;;
19998;SDS011;10160;50.926;4.374;2022-08-14T14:50:18;4.10;;;1.45;;
19998;SDS011;10160;50.926;4.374;2022-08-14T14:52:50;3.15;;;1.30;;
19998;SDS011;10160;50.926;4.374;2022-08-14T14:55:18;3.55;;;1.40;;
19998;SDS011;10160;50.926;4.374;2022-08-14T14:57:44;3.55;;;1.45;;
19998;SDS011;10160;50.926;4.374;2022-08-14T15:00:11;2.88;;;1.35;;
19998;SDS011;10160;50.926;4.374;2022-08-14T15:02:50;4.72;;;1.30;;
19998;SDS011;10160;50.926;4.374;2022-08-14T15:05:18;3.60;;;1.50;;
19998;SDS011;10160;50.926;4.374;2022-08-14T15:07:46;4.75;;;1.15;;
19998;SDS011;10160;50.926;4.374;2022-08-14T15:10:14;2.92;;;1.58;;
19998;SDS011;10160;50.926;4.374;2022-08-14T15:12:42;4.40;;;1.60;;
19998;SDS011;10160;50.926;4.374;2022-08-14T15:15:09;3.38;;;1.40;;
19998;SDS011;10160;50.926;4.374;2022-08-14T15:17:36;5.28;;;1.50;;
19998;SDS011;10160;50.926;4.374;2022-08-14T15:20:02;4.93;;;2.10;;
19998;SDS011;10160;50.926;4.374;2022-08-14T15:22:30;3.45;;;1.50;;
19998;SDS011;10160;50.926;4.374;2022-08-14T15:24:56;3.13;;;1.30;;
19998;SDS011;10160;50.926;4.374;2022-08-14T15:27:21;5.72;;;1.30;;
19998;SDS011;10160;50.926;4.374;2022-08-14T15:29:47;6.80;;;1.50;;
19998;SDS011;10160;50.926;4.374;2022-08-14T15:32:13;6.72;;;1.52;;
19998;SDS011;10160;50.926;4.374;2022-08-14T15:34:40;12.23;;;1.58;;
19998;SDS011;10160;50.926;4.374;2022-08-14T15:37:09;6.93;;;1.35;;
19998;SDS011;10160;50.926;4.374;2022-08-14T15:39:36;4.85;;;1.35;;
19998;SDS011;10160;50.926;4.374;2022-08-14T15:42:02;5.53;;;1.30;;
19998;SDS011;10160;50.926;4.374;2022-08-14T15:44:30;4.40;;;1.40;;
19998;SDS011;10160;50.926;4.374;2022-08-14T15:46:56;6.22;;;2.20;;
19998;SDS011;10160;50.926;4.374;2022-08-14T15:49:27;4.70;;;1.90;;
19998;SDS011;10160;50.926;4.374;2022-08-14T15:51:55;4.35;;;1.88;;
19998;SDS011;10160;50.926;4.374;2022-08-14T15:54:26;4.03;;;1.52;;
19998;SDS011;10160;50.926;4.374;2022-08-14T15:57:00;5.47;;;1.60;;
19998;SDS011;10160;50.926;4.374;2022-08-14T15:59:30;6.07;;;1.60;;
19998;SDS011;10160;50.926;4.374;2022-08-14T16:02:15;4.15;;;1.42;;
19998;SDS011;10160;50.926;4.374;2022-08-14T16:04:43;3.30;;;1.35;;
19998;SDS011;10160;50.926;4.374;2022-08-14T16:07:09;2.83;;;1.40;;
19998;SDS011;10160;50.926;4.374;2022-08-14T16:09:35;2.75;;;1.30;;
19998;SDS011;10160;50.926;4.374;2022-08-14T16:12:01;3.03;;;1.33;;
19998;SDS011;10160;50.926;4.374;2022-08-14T16:14:28;6.30;;;1.60;;
19998;SDS011;10160;50.926;4.374;2022-08-14T16:16:58;7.95;;;1.60;;
19998;SDS011;10160;50.926;4.374;2022-08-14T16:19:28;5.32;;;1.40;;
19998;SDS011;10160;50.926;4.374;2022-08-14T16:22:02;4.32;;;1.50;;
19998;SDS011;10160;50.926;4.374;2022-08-14T16:24:30;5.63;;;1.65;;
19998;SDS011;10160;50.926;4.374;2022-08-14T16:26:58;5.68;;;1.83;;
19998;SDS011;10160;50.926;4.374;2022-08-14T16:29:24;4.38;;;2.17;;
19998;SDS011;10160;50.926;4.374;2022-08-14T16:31:50;7.60;;;2.88;;
19998;SDS011;10160;50.926;4.374;2022-08-14T16:34:16;7.13;;;3.08;;
19998;SDS011;10160;50.926;4.374;2022-08-14T16:36:42;6.55;;;2.10;;
19998;SDS011;10160;50.926;4.374;2022-08-14T16:39:08;7.97;;;2.10;;
19998;SDS011;10160;50.926;4.374;2022-08-14T16:41:36;5.30;;;1.77;;
19998;SDS011;10160;50.926;4.374;2022-08-14T16:44:04;3.50;;;1.30;;
19998;SDS011;10160;50.926;4.374;2022-08-14T16:46:32;4.63;;;1.58;;
19998;SDS011;10160;50.926;4.374;2022-08-14T16:49:03;6.25;;;1.70;;
19998;SDS011;10160;50.926;4.374;2022-08-14T16:51:31;3.70;;;1.70;;
19998;SDS011;10160;50.926;4.374;2022-08-14T16:53:58;3.60;;;1.80;;
19998;SDS011;10160;50.926;4.374;2022-08-14T16:56:27;2.90;;;1.20;;
19998;SDS011;10160;50.926;4.374;2022-08-14T16:59:31;7.88;;;1.63;;
19998;SDS011;10160;50.926;4.374;2022-08-14T17:01:56;4.13;;;1.65;;
19998;SDS011;10160;50.926;4.374;2022-08-14T17:04:25;5.82;;;1.70;;
19998;SDS011;10160;50.926;4.374;2022-08-14T17:06:59;4.05;;;1.83;;
19998;SDS011;10160;50.926;4.374;2022-08-14T17:17:25;7.50;;;1.60;;
19998;SDS011;10160;50.926;4.374;2022-08-14T17:20:16;6.00;;;1.40;;
19998;SDS011;10160;50.926;4.374;2022-08-14T17:22:44;4.43;;;1.50;;
19998;SDS011;10160;50.926;4.374;2022-08-14T17:25:17;3.35;;;1.45;;
19998;SDS011;10160;50.926;4.374;2022-08-14T17:27:46;5.60;;;1.77;;
19998;SDS011;10160;50.926;4.374;2022-08-14T17:30:46;4.25;;;1.63;;
19998;SDS011;10160;50.926;4.374;2022-08-14T17:33:12;5.35;;;1.60;;
19998;SDS011;10160;50.926;4.374;2022-08-14T17:35:42;6.72;;;1.63;;
19998;SDS011;10160;50.926;4.374;2022-08-14T17:38:08;3.20;;;1.70;;
19998;SDS011;10160;50.926;4.374;2022-08-14T17:40:34;7.38;;;1.55;;
19998;SDS011;10160;50.926;4.374;2022-08-14T17:43:00;4.63;;;1.58;;
19998;SDS011;10160;50.926;4.374;2022-08-14T17:47:58;9.45;;;1.70;;
19998;SDS011;10160;50.926;4.374;2022-08-14T17:50:43;6.03;;;1.35;;
19998;SDS011;10160;50.926;4.374;2022-08-14T17:53:15;5.85;;;1.60;;
19998;SDS011;10160;50.926;4.374;2022-08-14T17:55:46;4.50;;;1.90;;
19998;SDS011;10160;50.926;4.374;2022-08-14T17:58:13;4.30;;;1.70;;
19998;SDS011;10160;50.926;4.374;2022-08-14T18:00:43;9.05;;;1.75;;
19998;SDS011;10160;50.926;4.374;2022-08-14T18:03:11;6.90;;;2.00;;
19998;SDS011;10160;50.926;4.374;2022-08-14T18:05:42;11.27;;;2.03;;
19998;SDS011;10160;50.926;4.374;2022-08-14T18:08:09;5.97;;;1.58;;
19998;SDS011;10160;50.926;4.374;2022-08-14T18:10:37;5.88;;;1.92;;
19998;SDS011;10160;50.926;4.374;2022-08-14T18:13:04;5.32;;;1.98;;
19998;SDS011;10160;50.926;4.374;2022-08-14T18:15:33;8.15;;;1.90;;
19998;SDS011;10160;50.926;4.374;2022-08-14T18:18:03;6.97;;;1.80;;
19998;SDS011;10160;50.926;4.374;2022-08-14T18:20:31;7.75;;;1.98;;
19998;SDS011;10160;50.926;4.374;2022-08-14T18:23:00;7.30;;;1.83;;
19998;SDS011;10160;50.926;4.374;2022-08-14T18:25:27;5.63;;;1.80;;
19998;SDS011;10160;50.926;4.374;2022-08-14T18:27:55;5.18;;;1.42;;
19998;SDS011;10160;50.926;4.374;2022-08-14T18:30:22;3.25;;;1.48;;
19998;SDS011;10160;50.926;4.374;2022-08-14T18:32:50;6.68;;;1.60;;
19998;SDS011;10160;50.926;4.374;2022-08-14T18:35:18;5.63;;;1.77;;
19998;SDS011;10160;50.926;4.374;2022-08-14T18:37:46;6.50;;;1.80;;
19998;SDS011;10160;50.926;4.374;2022-08-14T18:45:16;7.93;;;2.13;;
19998;SDS011;10160;50.926;4.374;2022-08-14T18:48:06;9.95;;;2.10;;
19998;SDS011;10160;50.926;4.374;2022-08-14T18:50:49;4.90;;;2.00;;
19998;SDS011;10160;50.926;4.374;2022-08-14T18:53:16;7.32;;;2.22;;
19998;SDS011;10160;50.926;4.374;2022-08-14T18:55:45;4.30;;;2.10;;
